LBWNLBBG

Guest
Details From LBWN - Varna
To LBBG - Burgas
Flight Number -
Tags Routegen Generated
Created
Modified
Stats Distance 47 nm / 88 km
Max Altitude 100 ft / 30 m
Waypoints 5
Social Downloads 2
Likes 0
Share VATSIM

Download

Looking for another format? Having issues loading an existing format? Contact us
Advertisement - Login to hide

Notes

Departing runway 9 LBWN. Arriving runway 4 LBBG.

Route

LBWN +43.22_+027.94 +42.95_+027.80 +42.68_+027.67 LBBG

ID Type Via Altitude Latitude Longitude Leg Dist Tot Dist Heading (true) Name
O LBWN APT - 100 ft / 30 m 43.23064˚ 27.84064˚ - 0 nm - -
+43.22_+027.94 DME - 100 ft / 30 m 43.22161˚ 27.93918˚ 4 nm 4 nm 97° / 97° -
+42.95_+027.80 DME - 100 ft / 30 m 42.95278˚ 27.80278˚ 17 nm 21 nm 200° / 200° -
+42.68_+027.67 DME - 100 ft / 30 m 42.68394˚ 27.66638˚ 17 nm 38 nm 200° / 200° -
O LBBG APT - 0 ft / 0 m 42.58043˚ 27.52888˚ 8 nm 47 nm 224° / 224° -

Altitude Profile

Advertisement - Login to hide

LBWN

Details ICAO LBWN (VAR)
Name Varna
Region Bulgaria
Timezone Europe/Sofia (UTC+2.0)
Stats Elevation 230 ft / 70 m (AMSL)
Location 43.232042° 27.825236°
Runways 1
Magnetic Variation 5.648° E

METAR

LBWN 171030Z 36009KT 320V040 9999 -RA BKN012 OVC021 07/05 Q1008 NOSIG

Decode

TAF

TAF LBWN 170500Z 1706/1806 28010KT 5000 RA SCT015 OVC030 BECMG 1707/1709 01018KT PROB30 TEMPO 1708/1711 3000 SHRA BKN015 FEW025CB OVC030 BECMG 1718/1720 9999 NSW SCT030 BKN045

Decode

Departure Runways

ID Width Length Bearing (true) Bearing (mag) Surface Threshold Offset Overrun Length
09 180 ft / 55 m 8,254 ft / 2,516 m 97.11° 91.46° Concrete 350 ft / 107 m 0 ft / 0 m
27 180 ft / 55 m 8,254 ft / 2,516 m 277.13° 271.48° Concrete 350 ft / 107 m 0 ft / 0 m

LBBG

Details ICAO LBBG (BOJ)
Name Burgas
Region Bulgaria
Timezone Europe/Sofia (UTC+2.0)
Stats Elevation 135 ft / 41 m (AMSL)
Location 42.570130° 27.515240°
Runways 1
Magnetic Variation 5.503° E

METAR

LBBG 171030Z 05014KT 7000 RA SCT015 BKN026 OVC039 08/07 Q1008 RERA NOSIG

Decode

TAF

TAF TAF LBBG 170500Z 1706/1806 01016KT 5000 RA BKN015 OVC025 TEMPO 1706/1714 3000 SHRA BKN015 SCT020CB OVC025 BECMG 1720/1722 9999 NSW SCT030 BKN045

Decode

Destination Runways

ID Width Length Bearing (true) Bearing (mag) Surface Threshold Offset Overrun Length
04 148 ft / 45 m 10,502 ft / 3,201 m 44.28° 38.78° Concrete 0 ft / 0 m 190 ft / 58 m
22 148 ft / 45 m 10,502 ft / 3,201 m 224.29° 218.79° Concrete 0 ft / 0 m 190 ft / 58 m

Approach Navaids

Runway Type Ident Frequency Range Bearing (true) Bearing (mag) Slope Elevation
22 Localiser IBG 110.30 MHz 18 nm / 33 km 224.26° 218.76° - 135 ft / 41 m (AMSL)
22 Glidescope IBG 110.30 MHz 10 nm / 19 km 224.28° 218.78° 3.00° 135 ft / 41 m (AMSL)

Popular Alternatives